Time;durP1;ratioP1;P1;durP2;ratioP2;P2;SDS_P1;SDS_P2;PMS_P1;PMS_P2;Temp;Humidity;BMP_temperature;BMP_pressure;BME280_temperature;BME280_humidity;BME280_pressure;Samples;Min_cycle;Max_cycle;Signal;HPM_P1;HPM_P2
2023/01/22 00:00:29;;;;;;;14.23;6.07;;;;;;;;;;5058074;28;20185;-88
2023/01/22 00:02:55;;;;;;;15.60;6.07;;;;;;;;;;5041778;28;20193;-88
2023/01/22 00:05:21;;;;;;;6.80;3.97;;;;;;;;;;5058852;28;20249;-88
2023/01/22 00:07:47;;;;;;;10.40;5.00;;;;;;;;;;5041979;28;20191;-89
2023/01/22 00:10:13;;;;;;;8.13;4.63;;;;;;;;;;5058540;28;20329;-89
2023/01/22 00:12:39;;;;;;;12.87;5.33;;;;;;;;;;5057584;28;20187;-89
2023/01/22 00:15:05;;;;;;;11.33;5.43;;;;;;;;;;5075712;28;20183;-88
2023/01/22 00:17:31;;;;;;;13.27;6.77;;;;;;;;;;5057675;28;20652;-88
2023/01/22 00:19:57;;;;;;;11.53;6.03;;;;;;;;;;5075391;28;20189;-88
2023/01/22 00:22:23;;;;;;;9.97;4.67;;;;;;;;;;5040841;28;20191;-88
2023/01/22 00:24:49;;;;;;;12.50;6.63;;;;;;;;;;5039982;28;20226;-88
2023/01/22 00:27:15;;;;;;;4.33;3.97;;;;;;;;;;5074654;28;20218;-88
2023/01/22 00:29:41;;;;;;;5.30;3.70;;;;;;;;;;5040155;28;20214;-89
2023/01/22 00:32:07;;;;;;;5.67;3.87;;;1.00;99.90;;;;;;5074403;28;20690;-90
2023/01/22 00:34:33;;;;;;;10.33;4.23;;;;;;;;;;5040217;28;20175;-88
2023/01/22 00:36:59;;;;;;;8.37;3.60;;;;;;;;;;5033359;28;20314;-88
2023/01/22 00:39:25;;;;;;;12.70;4.33;;;;;;;;;;5040550;28;20326;-87
2023/01/22 00:41:51;;;;;;;11.63;5.83;;;;;;;;;;5074306;28;20684;-88
2023/01/22 00:44:17;;;;;;;7.40;3.90;;;;;;;;;;5074522;28;20187;-88
2023/01/22 00:46:43;;;;;;;8.77;5.00;;;;;;;;;;5056356;28;20278;-88
2023/01/22 00:49:09;;;;;;;11.17;8.80;;;;;;;;;;5039800;28;20248;-88
2023/01/22 00:51:38;;;;;;;14.10;7.37;;;;;;;;;;5058806;28;20647;-88
2023/01/22 00:54:07;;;;;;;28.50;8.60;;;1.20;99.90;;;;;;5041286;28;20734;-87
2023/01/22 00:56:33;;;;;;;21.57;7.63;;;;;;;;;;5033298;28;20191;-88
2023/01/22 00:58:59;;;;;;;16.10;8.70;;;;;;;;;;5019824;28;20670;-89
2023/01/22 01:01:25;;;;;;;11.53;7.60;;;;;;;;;;5020051;28;20186;-88
2023/01/22 01:03:51;;;;;;;13.63;6.03;;;;;;;;;;5019915;28;20187;-88
2023/01/22 01:06:20;;;;;;;18.30;9.20;;;1.10;99.90;;;;;;5020019;28;20195;-88
2023/01/22 01:08:46;;;;;;;11.80;7.10;;;;;;;;;;5036184;28;20177;-88
2023/01/22 01:11:18;;;;;;;19.70;7.63;;;1.10;99.90;;;;;;5036439;28;20214;-88
2023/01/22 01:13:44;;;;;;;6.43;5.07;;;1.10;99.90;;;;;;5037031;28;20180;-88
2023/01/22 01:16:22;;;;;;;33.17;9.03;;;0.90;99.90;;;;;;5057036;28;20509;-89
2023/01/22 01:18:48;;;;;;;13.43;4.93;;;;;;;;;;5056557;28;20217;-88
2023/01/22 01:21:16;;;;;;;11.53;6.17;;;;;;;;;;5056119;28;20183;-88
2023/01/22 01:23:42;;;;;;;13.57;7.13;;;;;;;;;;5074023;28;20668;-87
2023/01/22 01:26:11;;;;;;;19.83;7.33;;;1.10;99.90;;;;;;5056171;28;20183;-86
2023/01/22 01:28:38;;;;;;;14.03;8.53;;;1.10;99.90;;;;;;5073981;28;20175;-86
2023/01/22 01:31:06;;;;;;;10.23;7.57;;;1.10;99.90;;;;;;5055500;28;20236;-87
2023/01/22 01:33:32;;;;;;;15.70;7.37;;;;;;;;;;5055541;28;20186;-87
2023/01/22 01:36:06;;;;;;;14.40;6.17;;;1.10;99.90;;;;;;5055597;28;20183;-87
2023/01/22 01:38:32;;;;;;;13.10;6.70;;;;;;;;;;5055982;28;20283;-86
2023/01/22 01:40:59;;;;;;;12.70;8.37;;;;;;;;;;5055563;28;20222;-86
2023/01/22 01:43:25;;;;;;;15.63;6.97;;;1.10;99.90;;;;;;5055886;28;20209;-86
2023/01/22 01:45:53;;;;;;;11.27;7.07;;;;;;;;;;5055543;28;20186;-86
2023/01/22 01:48:40;;;;;;;28.77;9.37;;;1.30;99.90;;;;;;5039160;28;20207;-86
2023/01/22 01:51:06;;;;;;;19.90;7.47;;;;;;;;;;5073240;28;20181;-87
2023/01/22 01:53:32;;;;;;;21.03;8.77;;;;;;;;;;5071853;28;20191;-85
2023/01/22 01:56:02;;;;;;;35.87;9.10;;;1.10;99.90;;;;;;5072355;28;20185;-87
2023/01/22 01:58:32;;;;;;;15.10;7.83;;;1.10;99.90;;;;;;5081848;28;20207;-85
2023/01/22 02:01:05;;;;;;;21.93;6.43;;;1.10;99.90;;;;;;5073286;28;20328;-86
2023/01/22 02:03:31;;;;;;;10.67;6.10;;;;;;;;;;5073360;28;20238;-87
2023/01/22 02:05:57;;;;;;;18.83;7.90;;;;;;;;;;5075598;28;20186;-88
2023/01/22 02:08:23;;;;;;;10.40;6.13;;;;;;;;;;5073637;28;20183;-86
2023/01/22 02:10:49;;;;;;;15.33;9.37;;;;;;;;;;5073346;28;20253;-89
2023/01/22 02:13:22;;;;;;;29.90;7.70;;;1.10;99.90;;;;;;5055177;28;20179;-91
2023/01/22 02:15:48;;;;;;;16.10;7.63;;;;;;;;;;5072474;28;20164;-87
2023/01/22 02:18:14;;;;;;;14.77;8.57;;;;;;;;;;5054604;28;20269;-86
2023/01/22 02:20:41;;;;;;;15.47;8.80;;;;;;;;;;5072542;28;20180;-87
2023/01/22 02:23:07;;;;;;;34.83;11.93;;;;;;;;;;5072206;28;20186;-87
2023/01/22 02:25:33;;;;;;;26.77;10.20;;;;;;;;;;5071651;28;20194;-89
2023/01/22 02:27:59;;;;;;;17.53;8.50;;;;;;;;;;5071507;28;20536;-90
2023/01/22 02:30:25;;;;;;;15.43;8.00;;;1.00;99.90;;;;;;5071706;28;20588;-88
2023/01/22 02:32:51;;;;;;;36.13;12.30;;;;;;;;;;5054499;28;20233;-87
2023/01/22 02:35:17;;;;;;;35.63;11.13;;;;;;;;;;5054803;28;20677;-88
2023/01/22 02:37:43;;;;;;;33.83;14.13;;;;;;;;;;5070775;28;20270;-87
2023/01/22 02:40:09;;;;;;;76.40;16.60;;;1.30;99.90;;;;;;5072445;28;20707;-87
2023/01/22 02:42:35;;;;;;;32.40;10.30;;;;;;;;;;5071223;28;20289;-86
2023/01/22 02:45:01;;;;;;;23.17;9.57;;;;;;;;;;5071205;28;20183;-87
2023/01/22 02:47:28;;;;;;;16.90;6.70;;;1.10;99.90;;;;;;5071066;28;20236;-87
2023/01/22 02:49:54;;;;;;;16.33;10.40;;;;;;;;;;5071329;28;20189;-87
2023/01/22 02:52:20;;;;;;;15.80;7.97;;;;;;;;;;5067340;28;20202;-85
2023/01/22 02:54:46;;;;;;;12.20;6.97;;;;;;;;;;5054110;28;20207;-85
2023/01/22 02:57:12;;;;;;;14.07;7.20;;;;;;;;;;5037749;28;20644;-85
2023/01/22 02:59:38;;;;;;;15.37;8.40;;;;;;;;;;5054512;28;20566;-88
2023/01/22 03:02:04;;;;;;;23.90;8.47;;;1.10;99.90;;;;;;5072332;28;20748;-86
2023/01/22 03:04:30;;;;;;;12.47;6.40;;;1.20;99.90;;;;;;5054330;28;20263;-85
2023/01/22 03:06:56;;;;;;;25.73;7.63;;;;;;;;;;5054478;28;20234;-87
2023/01/22 03:09:22;;;;;;;20.93;8.17;;;;;;;;;;5037777;28;20195;-86
2023/01/22 03:11:48;;;;;;;10.37;5.47;;;;;;;;;;5037859;28;20297;-86
2023/01/22 03:22:29;;;;;;;19.53;4.67;;;1.10;99.90;;;;;;5050876;28;20280;-87
2023/01/22 03:24:57;;;;;;;7.73;4.37;;;;;;;;;;5038134;28;20184;-87
2023/01/22 03:27:25;;;;;;;16.67;5.13;;;1.10;99.90;;;;;;5060590;28;20256;-87
2023/01/22 03:29:51;;;;;;;14.60;5.07;;;;;;;;;;5078857;28;20183;-90
2023/01/22 03:32:17;;;;;;;3.23;2.93;;;;;;;;;;5041896;28;20205;-87
2023/01/22 03:34:43;;;;;;;10.17;5.37;;;;;;;;;;5057893;28;20198;-87
2023/01/22 03:37:12;;;;;;;6.57;4.00;;;1.20;99.90;;;;;;5057535;28;21073;-87
2023/01/22 03:39:39;;;;;;;12.30;4.13;;;;;;;;;;5075479;28;20325;-87
2023/01/22 03:42:05;;;;;;;28.60;6.10;;;;;;;;;;5037959;28;20180;-88
2023/01/22 03:44:31;;;;;;;14.67;6.57;;;;;;;;;;5042634;28;20179;-87
2023/01/22 03:46:57;;;;;;;10.17;4.20;;;;;;;;;;5042901;28;20588;-87
2023/01/22 03:49:23;;;;;;;6.47;3.37;;;;;;;;;;5042002;28;20725;-86
2023/01/22 03:51:49;;;;;;;9.93;3.83;;;;;;;;;;5056134;28;20187;-86
2023/01/22 03:54:16;;;;;;;12.00;5.27;;;;;;;;;;5065195;28;20178;-86
2023/01/22 03:56:42;;;;;;;7.83;3.47;;;;;;;;;;5057482;28;20288;-88
2023/01/22 03:59:09;;;;;;;10.37;6.27;;;1.20;99.90;;;;;;5057353;28;20202;-87
2023/01/22 04:01:35;;;;;;;12.63;4.53;;;;;;;;;;5057048;28;20187;-87
2023/01/22 04:04:01;;;;;;;10.73;4.27;;;;;;;;;;5056973;28;20250;-88
2023/01/22 04:06:29;;;;;;;10.70;5.30;;;;;;;;;;5075302;28;20179;-87
2023/01/22 04:08:55;;;;;;;15.97;4.40;;;;;;;;;;5075019;28;20178;-88
2023/01/22 04:11:21;;;;;;;9.07;5.03;;;1.20;99.90;;;;;;5075004;28;20265;-88
2023/01/22 04:13:47;;;;;;;7.77;4.97;;;;;;;;;;5074847;28;20176;-87
2023/01/22 04:16:15;;;;;;;6.67;5.60;;;1.20;99.90;;;;;;5056780;28;20195;-87
2023/01/22 04:18:41;;;;;;;13.73;6.30;;;;;;;;;;5074798;28;20226;-87
2023/01/22 04:21:07;;;;;;;10.30;6.27;;;;;;;;;;5040262;28;20186;-87
2023/01/22 04:23:34;;;;;;;27.33;6.30;;;;;;;;;;5056937;28;21055;-88
2023/01/22 04:26:00;;;;;;;9.37;5.93;;;;;;;;;;5057144;28;20179;-88
2023/01/22 04:28:26;;;;;;;5.37;4.10;;;;;;;;;;5073681;28;20228;-87
2023/01/22 04:30:53;;;;;;;12.07;4.13;;;1.20;99.90;;;;;;5054881;28;20576;-88
2023/01/22 04:33:19;;;;;;;8.70;6.00;;;;;;;;;;5037069;28;20179;-88
2023/01/22 04:35:50;;;;;;;21.07;7.23;;;1.10;99.90;;;;;;5054654;28;20180;-89
2023/01/22 04:38:16;;;;;;;13.30;7.10;;;;;;;;;;5054686;28;20237;-88
2023/01/22 04:40:42;;;;;;;16.37;8.00;;;;;;;;;;5054422;28;20644;-88
2023/01/22 04:43:09;;;;;;;13.63;4.47;;;1.10;99.90;;;;;;5036435;28;20187;-87
2023/01/22 04:45:35;;;;;;;16.43;6.53;;;;;;;;;;5036579;28;20183;-87
2023/01/22 04:48:02;;;;;;;37.50;6.47;;;;;;;;;;5036331;28;20241;-88
2023/01/22 04:50:31;;;;;;;14.10;7.40;;;1.10;99.90;;;;;;5036457;28;20189;-88
2023/01/22 04:52:57;;;;;;;12.07;6.43;;;;;;;;;;5050464;28;20663;-88
2023/01/22 04:55:24;;;;;;;21.33;6.70;;;1.10;99.90;;;;;;5074262;28;20190;-88
2023/01/22 04:57:50;;;;;;;7.13;4.73;;;;;;;;;;5056152;28;20211;-88
2023/01/22 05:00:16;;;;;;;7.70;6.23;;;0.70;99.90;;;;;;5056447;28;20212;-88
2023/01/22 05:02:42;;;;;;;16.97;5.57;;;;;;;;;;5039732;28;20209;-87
2023/01/22 05:05:09;;;;;;;13.43;5.17;;;;;;;;;;5039806;28;20219;-88
2023/01/22 05:07:35;;;;;;;10.13;6.03;;;;;;;;;;5074246;28;20211;-88
2023/01/22 05:10:01;;;;;;;19.73;6.13;;;;;;;;;;5041742;28;20258;-87
2023/01/22 05:12:27;;;;;;;9.23;5.20;;;;;;;;;;5036096;28;20528;-86
2023/01/22 05:14:53;;;;;;;11.43;6.40;;;;;;;;;;5036135;28;20244;-87
2023/01/22 05:17:19;;;;;;;19.47;6.97;;;1.10;99.90;;;;;;5019649;28;20556;-87
2023/01/22 05:19:45;;;;;;;18.70;5.67;;;;;;;;;;5053627;28;20657;-87
2023/01/22 05:22:12;;;;;;;3.63;3.33;;;;;;;;;;5037988;28;20204;-89
2023/01/22 05:24:38;;;;;;;7.27;4.00;;;;;;;;;;5044046;28;20188;-85
2023/01/22 05:27:04;;;;;;;13.63;5.63;;;;;;;;;;5038225;28;20191;-87
2023/01/22 05:29:30;;;;;;;8.20;5.70;;;;;;;;;;5053547;28;20186;-87
2023/01/22 05:31:57;;;;;;;6.73;3.43;;;1.10;99.90;;;;;;5019478;28;20194;-88
2023/01/22 05:34:24;;;;;;;9.30;5.60;;;1.30;99.90;;;;;;5035502;28;20184;-87
2023/01/22 05:36:50;;;;;;;3.87;3.57;;;;;;;;;;5034307;28;20309;-87
2023/01/22 05:39:16;;;;;;;19.47;6.80;;;1.20;99.90;;;;;;5035318;28;20280;-88
2023/01/22 05:41:42;;;;;;;14.73;8.07;;;;;;;;;;5035794;28;20184;-87
2023/01/22 05:44:12;;;;;;;9.40;5.83;;;1.30;99.90;;;;;;5053011;28;20184;-87
2023/01/22 05:46:38;;;;;;;8.17;5.73;;;;;;;;;;5035387;28;20719;-87
2023/01/22 05:49:04;;;;;;;12.43;5.80;;;;;;;;;;5035001;28;20274;-87
2023/01/22 05:51:30;;;;;;;21.83;6.80;;;;;;;;;;5041482;28;20280;-87
2023/01/22 05:53:56;;;;;;;20.33;6.00;;;;;;;;;;5072987;28;20258;-87
2023/01/22 05:56:22;;;;;;;12.53;5.70;;;;;;;;;;5073518;28;20593;-87
2023/01/22 05:58:49;;;;;;;14.50;4.93;;;;;;;;;;5073190;28;20202;-87
2023/01/22 06:01:15;;;;;;;9.00;4.87;;;;;;;;;;5045883;28;20684;-87
2023/01/22 06:03:42;;;;;;;12.30;5.40;;;;;;;;;;5038448;28;20187;-87
2023/01/22 06:06:11;;;;;;;9.70;6.40;;;1.20;99.90;;;;;;5038765;28;20191;-87
2023/01/22 06:08:37;;;;;;;6.07;5.20;;;;;;;;;;5038598;28;20215;-87
2023/01/22 06:11:05;;;;;;;12.27;5.10;;;1.40;99.90;;;;;;5044836;28;20227;-88
2023/01/22 06:13:32;;;;;;;11.47;4.77;;;1.30;99.90;;;;;;5052666;28;20175;-88
2023/01/22 06:15:59;;;;;;;14.10;4.27;;;;;;;;;;5035482;28;20215;-88
2023/01/22 06:18:25;;;;;;;9.53;3.50;;;;;;;;;;5034962;28;20694;-87
2023/01/22 06:20:51;;;;;;;6.40;4.30;;;;;;;;;;5052979;28;20177;-87
2023/01/22 06:23:18;;;;;;;10.40;3.20;;;;;;;;;;5036069;28;20209;-88
2023/01/22 06:25:44;;;;;;;10.90;4.13;;;;;;;;;;5035064;28;20195;-87
2023/01/22 06:28:10;;;;;;;3.67;3.27;;;;;;;;;;5034832;28;20190;-87
2023/01/22 06:30:36;;;;;;;4.37;3.63;;;1.30;99.90;;;;;;5053044;28;20188;-87
2023/01/22 06:33:02;;;;;;;13.00;5.33;;;;;;;;;;5052674;28;20181;-88
2023/01/22 06:35:29;;;;;;;6.73;4.57;;;;;;;;;;5056329;28;20191;-87
2023/01/22 06:37:55;;;;;;;10.23;3.83;;;;;;;;;;5035259;28;20234;-87
2023/01/22 06:40:21;;;;;;;7.73;5.17;;;;;;;;;;5053295;28;20182;-87
2023/01/22 06:42:47;;;;;;;8.67;3.80;;;;;;;;;;5019211;28;20188;-87
2023/01/22 06:45:14;;;;;;;4.77;3.80;;;;;;;;;;5035042;28;20546;-87
2023/01/22 06:47:43;;;;;;;8.63;3.07;;;1.30;99.90;;;;;;5020811;28;20190;-86
2023/01/22 06:50:10;;;;;;;5.70;3.37;;;1.00;99.90;;;;;;5048618;28;20251;-86
2023/01/22 06:52:36;;;;;;;9.70;4.47;;;;;;;;;;5065283;28;20410;-87
2023/01/22 06:55:02;;;;;;;4.00;3.40;;;;;;;;;;5076061;28;20255;-87
2023/01/22 06:57:28;;;;;;;6.23;4.00;;;;;;;;;;5073853;28;20197;-86
2023/01/22 06:59:54;;;;;;;7.40;3.83;;;;;;;;;;5059182;28;20219;-87
2023/01/22 07:02:20;;;;;;;7.70;4.97;;;;;;;;;;5076722;28;20187;-87
2023/01/22 07:04:46;;;;;;;27.90;4.57;;;;;;;;;;5041849;28;20636;-87
2023/01/22 07:07:12;;;;;;;6.97;4.30;;;;;;;;;;5057548;28;20176;-87
2023/01/22 07:09:38;;;;;;;4.67;3.73;;;;;;;;;;5059030;28;20322;-87
2023/01/22 07:12:04;;;;;;;4.00;3.23;;;;;;;;;;5069544;28;20197;-93
2023/01/22 07:14:30;;;;;;;8.40;4.77;;;;;;;;;;5077409;28;20628;-88
2023/01/22 07:16:56;;;;;;;14.47;4.37;;;;;;;;;;5078364;28;20186;-88
2023/01/22 07:19:23;;;;;;;8.00;3.43;;;;;;;;;;5070538;28;20229;-87
2023/01/22 07:21:49;;;;;;;8.07;4.47;;;;;;;;;;5056239;28;20293;-85
2023/01/22 07:24:15;;;;;;;17.27;6.27;;;1.40;99.90;;;;;;5063589;28;20656;-85
2023/01/22 07:26:42;;;;;;;8.30;4.27;;;;;;;;;;5066860;28;20241;-88
2023/01/22 07:29:08;;;;;;;15.73;4.83;;;1.10;99.90;;;;;;5021174;28;20187;-86
2023/01/22 07:31:35;;;;;;;14.47;5.47;;;;;;;;;;5037838;28;20278;-85
2023/01/22 07:34:01;;;;;;;5.67;3.50;;;1.40;99.90;;;;;;5055507;28;20625;-85
2023/01/22 07:36:27;;;;;;;13.27;4.73;;;;;;;;;;5021019;28;20576;-85
2023/01/22 07:38:53;;;;;;;9.70;4.60;;;;;;;;;;5037654;28;20221;-86
2023/01/22 07:41:19;;;;;;;10.23;3.90;;;;;;;;;;5037429;28;20179;-88
2023/01/22 07:43:48;;;;;;;11.23;6.17;;;;;;;;;;5045747;28;20240;-87
2023/01/22 07:46:14;;;;;;;11.50;4.47;;;;;;;;;;5057042;28;20240;-86
2023/01/22 07:48:40;;;;;;;7.40;6.67;;;;;;;;;;5037409;28;20195;-85
2023/01/22 07:51:06;;;;;;;7.60;4.73;;;;;;;;;;5055351;28;20214;-86
2023/01/22 07:53:33;;;;;;;10.03;5.33;;;1.40;99.90;;;;;;5069969;28;20271;-86
2023/01/22 07:56:00;;;;;;;15.17;6.30;;;1.40;99.90;;;;;;5052486;28;20188;-85
2023/01/22 07:58:26;;;;;;;10.13;4.17;;;;;;;;;;5054119;28;20240;-86
2023/01/22 08:00:52;;;;;;;11.10;5.20;;;;;;;;;;5040007;28;20185;-87
2023/01/22 08:03:18;;;;;;;5.10;4.07;;;;;;;;;;5056401;28;20189;-86
2023/01/22 08:05:44;;;;;;;6.47;4.07;;;;;;;;;;5074786;28;20198;-84
2023/01/22 08:08:13;;;;;;;16.83;5.50;;;1.40;99.90;;;;;;5074094;28;20180;-92
2023/01/22 08:10:39;;;;;;;12.57;5.47;;;;;;;;;;5074267;28;20271;-84
2023/01/22 08:13:05;;;;;;;7.70;5.33;;;;;;;;;;5039535;28;20600;-86
2023/01/22 08:15:31;;;;;;;12.20;6.20;;;;;;;;;;5056254;28;20182;-85
2023/01/22 08:17:57;;;;;;;13.60;5.70;;;;;;;;;;5056675;28;20205;-86
2023/01/22 08:20:24;;;;;;;12.13;3.70;;;1.40;99.90;;;;;;5059731;28;20654;-86
2023/01/22 08:22:50;;;;;;;8.37;5.13;;;;;;;;;;5021485;28;20192;-86
2023/01/22 08:25:16;;;;;;;7.27;4.53;;;;;;;;;;5053183;28;20726;-87
2023/01/22 08:27:42;;;;;;;11.37;5.70;;;;;;;;;;5054398;28;20229;-87
2023/01/22 08:30:13;;;;;;;9.37;4.33;;;1.30;99.90;;;;;;5067248;28;20191;-86
2023/01/22 08:32:44;;;;;;;6.97;4.60;;;;;;;;;;5038764;28;20191;-86
2023/01/22 08:35:10;;;;;;;7.87;4.57;;;;;;;;;;5039126;28;20647;-86
2023/01/22 08:37:36;;;;;;;4.40;3.67;;;;;;;;;;5030248;28;20707;-86
2023/01/22 08:40:04;;;;;;;5.63;4.93;;;1.40;99.90;;;;;;5069657;28;20191;-86
2023/01/22 08:42:30;;;;;;;11.30;6.13;;;;;;;;;;5046185;28;20214;-85
2023/01/22 08:44:56;;;;;;;10.13;5.77;;;;;;;;;;5073232;28;20189;-86
2023/01/22 08:47:23;;;;;;;16.97;6.90;;;;;;;;;;5056445;28;20221;-85
2023/01/22 08:49:49;;;;;;;11.27;6.07;;;;;;;;;;5053749;28;20715;-86
2023/01/22 08:52:15;;;;;;;21.17;4.70;;;;;;;;;;5029300;28;20218;-86
2023/01/22 08:54:41;;;;;;;7.80;4.90;;;;;;;;;;5037737;28;20199;-93
2023/01/22 08:57:07;;;;;;;5.13;4.20;;;;;;;;;;5070883;28;20191;-86
2023/01/22 08:59:33;;;;;;;7.77;5.60;;;1.60;99.90;;;;;;5024862;28;20221;-86
2023/01/22 09:02:00;;;;;;;5.80;2.63;;;;;;;;;;5048997;28;20756;-87
2023/01/22 09:04:26;;;;;;;3.90;3.53;;;;;;;;;;5036947;28;20293;-89
2023/01/22 09:06:52;;;;;;;9.10;5.23;;;;;;;;;;5059689;28;20184;-84
2023/01/22 09:09:18;;;;;;;6.47;4.43;;;;;;;;;;5046008;28;20369;-89
2023/01/22 09:11:45;;;;;;;9.53;3.20;;;;;;;;;;5051566;28;20216;-88
2023/01/22 09:14:11;;;;;;;14.13;5.57;;;;;;;;;;5066127;28;20182;-89
2023/01/22 09:16:37;;;;;;;13.33;6.43;;;;;;;;;;5039401;28;20189;-88
2023/01/22 09:19:04;;;;;;;12.73;6.90;;;;;;;;;;5039483;28;20296;-88
2023/01/22 09:21:32;;;;;;;13.30;5.80;;;;;;;;;;5050825;28;20242;-86
2023/01/22 09:23:58;;;;;;;6.87;3.67;;;;;;;;;;5031604;28;20245;-88
2023/01/22 09:26:24;;;;;;;7.60;3.87;;;;;;;;;;5029595;28;20192;-88
2023/01/22 09:28:50;;;;;;;8.57;4.43;;;;;;;;;;5068260;28;20184;-88
2023/01/22 09:31:16;;;;;;;12.20;5.17;;;;;;;;;;5052355;28;20189;-88
2023/01/22 09:33:44;;;;;;;9.73;4.07;;;;;;;;;;5029951;28;20198;-87
2023/01/22 09:36:14;;;;;;;11.10;6.07;;;1.60;99.90;;;;;;5055492;28;20198;-89
2023/01/22 09:38:41;;;;;;;6.90;4.97;;;;;;;;;;5055927;28;20601;-87
2023/01/22 09:41:21;;;;;;;11.80;4.73;;;1.50;99.90;;;;;;5048883;28;20208;-87
2023/01/22 09:43:47;;;;;;;8.40;4.23;;;;;;;;;;5051284;28;20244;-89
2023/01/22 09:46:37;;;;;;;8.63;4.73;;;1.70;99.90;;;;;;5041685;28;20587;-88
2023/01/22 09:49:16;;;;;;;12.37;6.23;;;1.90;99.90;;;;;;5049000;28;20203;-90
2023/01/22 09:51:55;;;;;;;10.87;7.67;;;1.70;99.90;;;;;;5054282;28;20182;-88
2023/01/22 09:54:22;;;;;;;12.03;6.50;;;1.70;99.90;;;;;;5048331;28;20199;-89
2023/01/22 09:56:51;;;;;;;17.13;10.13;;;1.80;99.90;;;;;;5044476;28;20440;-88
2023/01/22 09:59:20;;;;;;;13.97;7.40;;;1.70;99.90;;;;;;5054953;28;20217;-87
2023/01/22 10:01:51;;;;;;;17.50;6.73;;;1.70;99.90;;;;;;5054941;28;20198;-89
2023/01/22 10:04:39;;;;;;;10.83;5.43;;;1.70;99.90;;;;;;5072642;28;20181;-87
2023/01/22 10:07:21;;;;;;;6.93;3.97;;;1.80;99.90;;;;;;5041121;28;20655;-88
2023/01/22 10:09:54;;;;;;;18.87;6.43;;;1.80;99.90;;;;;;5052019;28;20186;-87
2023/01/22 10:12:20;;;;;;;5.40;4.37;;;;;;;;;;5044590;28;20705;-86
2023/01/22 10:14:46;;;;;;;11.33;5.73;;;;;;;;;;5054626;28;20542;-87
2023/01/22 10:17:24;;;;;;;14.57;7.57;;;1.80;99.90;;;;;;5055049;28;20186;-87
2023/01/22 10:20:00;;;;;;;9.47;6.90;;;2.00;99.90;;;;;;5042215;28;20207;-86
2023/01/22 10:22:26;;;;;;;7.13;5.80;;;;;;;;;;5043518;28;20180;-87
2023/01/22 10:24:53;;;;;;;22.97;8.53;;;;;;;;;;5060274;28;20175;-86
2023/01/22 10:27:24;;;;;;;30.97;9.03;;;1.80;99.90;;;;;;5043206;28;20206;-87
2023/01/22 10:30:17;;;;;;;21.87;9.80;;;1.80;99.90;;;;;;5055727;28;20758;-87
2023/01/22 10:32:43;;;;;;;21.67;10.30;;;;;;;;;;5068382;28;20181;-87
2023/01/22 10:35:30;;;;;;;12.30;10.10;;;2.10;99.90;;;;;;5049127;28;20262;-87
2023/01/22 10:37:57;;;;;;;20.00;10.67;;;;;;;;;;5038803;28;20322;-88
2023/01/22 10:40:32;;;;;;;25.53;12.20;;;1.90;99.90;;;;;;5070913;28;20220;-87
2023/01/22 10:43:13;;;;;;;22.73;9.63;;;1.90;99.90;;;;;;5077538;28;20225;-87
2023/01/22 10:45:39;;;;;;;10.03;5.90;;;;;;;;;;5061168;28;20215;-88
2023/01/22 10:48:11;;;;;;;25.00;10.00;;;2.10;99.90;;;;;;5055955;28;20193;-88
2023/01/22 10:50:37;;;;;;;20.10;10.27;;;;;;;;;;5070796;28;20242;-89
2023/01/22 10:53:12;;;;;;;11.60;8.23;;;1.90;99.90;;;;;;5057340;28;20192;-90
2023/01/22 10:55:41;;;;;;;19.57;7.73;;;1.90;99.90;;;;;;5059614;28;20189;-90
2023/01/22 10:58:15;;;;;;;14.83;7.17;;;1.90;99.90;;;;;;5047852;28;20214;-87
2023/01/22 11:00:41;;;;;;;16.07;6.80;;;;;;;;;;5066356;28;20189;-89
2023/01/22 11:03:28;;;;;;;16.40;7.20;;;2.30;99.90;;;;;;5049892;28;20653;-90
2023/01/22 11:06:03;;;;;;;18.03;7.40;;;1.90;99.90;;;;;;5064877;28;20241;-89
2023/01/22 11:08:40;;;;;;;10.70;6.50;;;1.90;99.90;;;;;;5087870;28;20236;-90
2023/01/22 11:11:09;;;;;;;21.20;9.27;;;1.90;99.90;;;;;;5074832;28;20239;-87
2023/01/22 11:13:55;;;;;;;22.43;7.73;;;1.60;99.90;;;;;;5074046;28;20198;-88
2023/01/22 11:16:23;;;;;;;19.23;7.87;;;1.90;99.90;;;;;;5091574;28;20272;-89
2023/01/22 11:18:57;;;;;;;21.60;8.07;;;1.90;99.90;;;;;;5067470;28;20682;-88
2023/01/22 11:21:31;;;;;;;17.07;8.83;;;2.20;99.90;;;;;;5063609;28;20278;-89
2023/01/22 11:24:12;;;;;;;31.33;11.03;;;1.90;99.90;;;;;;5064402;28;20175;-88
2023/01/22 11:26:57;;;;;;;37.43;9.20;;;2.00;99.90;;;;;;5045846;28;20187;-87
2023/01/22 11:29:51;;;;;;;32.93;9.37;;;2.00;99.90;;;;;;5080772;28;20190;-87
2023/01/22 11:32:44;;;;;;;22.83;9.03;;;2.70;99.90;;;;;;5045002;28;20190;-86
2023/01/22 11:35:44;;;;;;;9.37;6.33;;;2.00;99.90;;;;;;5063677;28;20182;-88
2023/01/22 11:38:10;;;;;;;33.80;11.27;;;;;;;;;;5059858;28;20222;-88
2023/01/22 11:40:59;;;;;;;19.77;9.03;;;2.30;99.90;;;;;;5081839;28;20213;-88
2023/01/22 11:43:39;;;;;;;23.20;13.70;;;2.00;99.90;;;;;;5081153;28;20211;-89
2023/01/22 11:46:15;;;;;;;19.87;8.03;;;2.10;99.90;;;;;;5062701;28;20210;-86
2023/01/22 11:48:41;;;;;;;17.27;9.23;;;;;;;;;;5071766;28;20175;-89
2023/01/22 11:51:07;;;;;;;15.97;8.30;;;;;;;;;;5067792;28;20693;-88
2023/01/22 11:54:14;;;;;;;25.23;10.37;;;1.90;99.90;;;;;;5070486;28;20647;-87
2023/01/22 11:56:40;;;;;;;25.80;7.70;;;;;;;;;;5074136;28;20190;-87
2023/01/22 11:59:19;;;;;;;26.17;11.93;;;2.00;99.90;;;;;;5060677;28;20272;-87
2023/01/22 12:02:01;;;;;;;22.17;13.23;;;2.00;99.90;;;;;;5060961;28;20186;-86
2023/01/22 12:04:54;;;;;;;22.57;10.37;;;2.00;99.90;;;;;;5078550;28;20235;-88
2023/01/22 12:07:45;;;;;;;14.77;7.93;;;1.80;99.90;;;;;;5061158;28;20199;-87
2023/01/22 12:10:32;;;;;;;13.93;7.90;;;2.20;99.90;;;;;;5062454;28;20619;-87
2023/01/22 12:12:58;;;;;;;20.67;6.67;;;;;;;;;;5083335;28;20171;-87
2023/01/22 12:15:24;;;;;;;10.27;4.87;;;;;;;;;;5064361;28;20710;-85
2023/01/22 12:18:02;;;;;;;16.23;6.60;;;1.90;99.90;;;;;;5059046;28;20182;-87
2023/01/22 12:20:52;;;;;;;10.43;7.73;;;1.90;99.90;;;;;;5069792;28;20182;-87
2023/01/22 12:23:32;;;;;;;20.17;7.90;;;1.90;99.90;;;;;;5064321;28;20614;-87
2023/01/22 12:26:05;;;;;;;17.67;7.67;;;2.00;99.90;;;;;;5061220;28;20178;-86
2023/01/22 12:29:00;;;;;;;19.43;7.93;;;2.00;99.90;;;;;;5080673;28;20197;-88
2023/01/22 12:31:36;;;;;;;16.57;5.30;;;1.70;99.90;;;;;;5060214;28;20180;-87
2023/01/22 12:34:27;;;;;;;7.97;4.87;;;1.90;99.90;;;;;;5061323;28;20177;-87
2023/01/22 12:36:54;;;;;;;12.70;8.30;;;;;;;;;;5070838;28;20237;-87
2023/01/22 12:39:27;;;;;;;38.23;13.73;;;1.90;99.90;;;;;;5072854;28;20207;-88
2023/01/22 12:42:13;;;;;;;17.10;9.00;;;1.90;99.90;;;;;;5043449;28;20178;-87
2023/01/22 12:45:18;;;;;;;18.30;7.33;;;2.00;99.90;;;;;;5053384;28;20182;-86
2023/01/22 12:47:53;;;;;;;24.27;6.80;;;1.90;99.90;;;;;;5082192;28;20165;-87
2023/01/22 12:50:24;;;;;;;10.67;5.83;;;1.90;99.90;;;;;;5064065;28;20183;-87
2023/01/22 12:53:01;;;;;;;12.73;6.80;;;2.00;99.90;;;;;;5062910;28;20244;-88
2023/01/22 12:55:33;;;;;;;22.40;8.03;;;1.90;99.90;;;;;;5045975;28;20535;-88
2023/01/22 12:58:00;;;;;;;15.20;8.67;;;1.90;99.90;;;;;;5062599;28;20167;-87
2023/01/22 13:00:33;;;;;;;19.73;8.13;;;1.70;99.90;;;;;;5078287;28;20182;-87
2023/01/22 13:02:59;;;;;;;20.13;8.60;;;;;;;;;;5061546;28;20168;-86
2023/01/22 13:05:25;;;;;;;22.83;10.37;;;;;;;;;;5063690;28;20175;-86
2023/01/22 13:08:17;;;;;;;10.70;7.10;;;1.90;99.90;;;;;;5079038;28;20189;-88
2023/01/22 13:10:58;;;;;;;20.00;9.53;;;1.80;99.90;;;;;;5060589;28;20235;-87
2023/01/22 13:13:48;;;;;;;15.50;7.93;;;1.70;99.90;;;;;;5077241;28;20183;-87
2023/01/22 13:16:58;;;;;;;24.30;8.53;;;2.00;99.90;;;;;;5039440;28;20177;-86
2023/01/22 13:19:51;;;;;;;6.50;5.20;;;1.90;99.90;;;;;;5019230;28;20231;-85
2023/01/22 13:22:22;;;;;;;9.13;6.60;;;1.90;99.90;;;;;;5055048;28;20666;-86
2023/01/22 13:24:55;;;;;;;24.57;9.43;;;1.90;99.90;;;;;;5054342;28;20201;-86
2023/01/22 13:27:31;;;;;;;13.50;7.40;;;2.30;99.90;;;;;;5037087;28;20187;-86
2023/01/22 13:30:13;;;;;;;15.47;8.47;;;1.80;99.90;;;;;;5054235;28;20202;-86
2023/01/22 13:32:39;;;;;;;15.30;7.40;;;;;;;;;;5038422;28;20172;-86
2023/01/22 13:35:06;;;;;;;19.47;7.63;;;1.80;99.90;;;;;;5056294;28;20209;-86
2023/01/22 13:37:34;;;;;;;15.63;7.20;;;;;;;;;;5040208;28;20256;-88
2023/01/22 13:40:23;;;;;;;19.50;10.60;;;1.90;99.90;;;;;;5057027;28;20262;-88
2023/01/22 13:42:50;;;;;;;30.03;9.53;;;;;;;;;;5056622;28;20175;-87
2023/01/22 13:45:22;;;;;;;23.87;10.57;;;1.90;99.90;;;;;;5040489;28;20183;-86
2023/01/22 13:47:49;;;;;;;20.40;8.90;;;;;;;;;;5056333;28;20181;-86
2023/01/22 13:50:27;;;;;;;14.43;7.00;;;1.60;99.90;;;;;;5073798;28;20179;-85
2023/01/22 13:52:55;;;;;;;20.13;7.67;;;1.80;99.90;;;;;;5073404;28;20158;-86
2023/01/22 13:55:23;;;;;;;11.60;8.90;;;1.80;99.90;;;;;;5055298;28;20186;-86
2023/01/22 13:57:51;;;;;;;19.93;7.07;;;1.80;99.90;;;;;;5055116;28;20265;-86
2023/01/22 14:00:25;;;;;;;20.77;8.27;;;1.80;99.90;;;;;;5073601;28;20199;-86
2023/01/22 14:02:52;;;;;;;14.87;7.63;;;;;;;;;;5056091;28;20204;-88
2023/01/22 14:05:44;;;;;;;5.40;4.90;;;1.80;99.90;;;;;;5039819;28;20185;-86
2023/01/22 14:08:12;;;;;;;9.40;5.13;;;1.80;99.90;;;;;;5051272;28;20209;-87
2023/01/22 14:10:40;;;;;;;12.40;8.47;;;1.80;99.90;;;;;;5074667;28;20184;-87